createdAt,value
2022-09-16T00:01:34.523Z,100.00
2022-09-16T00:04:03.724Z,100.00
2022-09-16T00:06:32.486Z,100.00
2022-09-16T00:09:02.700Z,100.00
2022-09-16T00:11:35.208Z,100.00
2022-09-16T00:14:04.838Z,100.00
2022-09-16T00:16:34.001Z,100.00
2022-09-16T00:19:03.653Z,100.00
2022-09-16T00:21:33.011Z,100.00
2022-09-16T00:24:03.620Z,100.00
2022-09-16T00:26:32.500Z,100.00
2022-09-16T00:29:01.381Z,100.00
2022-09-16T00:31:30.265Z,100.00
2022-09-16T00:33:59.129Z,100.00
2022-09-16T00:36:27.933Z,100.00
2022-09-16T00:38:57.316Z,100.00
2022-09-16T00:41:33.108Z,100.00
2022-09-16T00:44:03.444Z,100.00
2022-09-16T00:46:37.123Z,100.00
2022-09-16T00:49:11.432Z,100.00
2022-09-16T00:51:42.263Z,100.00
2022-09-16T00:54:12.390Z,100.00
2022-09-16T00:56:48.446Z,100.00
2022-09-16T00:59:20.525Z,100.00
2022-09-16T01:01:50.502Z,100.00
2022-09-16T01:04:22.721Z,100.00
2022-09-16T01:06:52.567Z,100.00
2022-09-16T01:09:23.506Z,100.00
2022-09-16T01:11:53.699Z,100.00
2022-09-16T01:14:41.887Z,100.00
2022-09-16T01:17:16.172Z,100.00
2022-09-16T01:20:04.522Z,100.00
2022-09-16T01:22:47.519Z,100.00
2022-09-16T01:25:28.969Z,100.00
2022-09-16T01:28:34.647Z,100.00
2022-09-16T01:31:14.834Z,100.00
2022-09-16T01:33:53.685Z,100.00
2022-09-16T01:36:35.947Z,100.00
2022-09-16T01:39:21.367Z,100.00
2022-09-16T01:42:05.678Z,100.00
2022-09-16T01:44:41.445Z,100.00
2022-09-16T01:47:21.923Z,100.00
2022-09-16T01:50:01.721Z,100.00
2022-09-16T01:52:42.927Z,100.00
2022-09-16T01:55:18.977Z,100.00
2022-09-16T01:57:54.771Z,100.00
2022-09-16T02:00:24.282Z,100.00
2022-09-16T02:02:59.576Z,100.00
2022-09-16T02:05:34.773Z,100.00
2022-09-16T02:08:08.240Z,100.00
2022-09-16T02:10:42.406Z,100.00
2022-09-16T02:13:16.459Z,100.00
2022-09-16T02:15:49.012Z,100.00
2022-09-16T02:18:24.122Z,100.00
2022-09-16T02:20:56.835Z,100.00
2022-09-16T02:23:31.161Z,100.00
2022-09-16T02:26:01.964Z,100.00
2022-09-16T02:28:35.215Z,100.00
2022-09-16T02:31:07.612Z,100.00
2022-09-16T02:33:42.125Z,100.00
2022-09-16T02:36:15.563Z,100.00
2022-09-16T02:38:49.262Z,100.00
2022-09-16T02:41:18.223Z,100.00
2022-09-16T02:43:47.600Z,100.00
2022-09-16T02:46:24.830Z,100.00
2022-09-16T02:49:04.799Z,100.00
2022-09-16T02:51:43.474Z,100.00
2022-09-16T02:54:21.539Z,100.00
2022-09-16T02:56:50.398Z,100.00
2022-09-16T02:59:20.425Z,100.00
2022-09-16T03:01:49.528Z,100.00
2022-09-16T03:04:21.698Z,100.00
2022-09-16T03:06:50.562Z,100.00
2022-09-16T03:09:24.083Z,100.00
2022-09-16T03:12:43.263Z,100.00
2022-09-16T03:15:28.838Z,100.00
2022-09-16T03:18:18.726Z,100.00
2022-09-16T03:20:59.960Z,100.00
2022-09-16T03:23:38.182Z,100.00
2022-09-16T03:26:16.809Z,100.00
2022-09-16T03:28:52.314Z,100.00
2022-09-16T03:31:28.079Z,100.00
2022-09-16T03:34:06.343Z,100.00
2022-09-16T03:36:38.940Z,100.00
2022-09-16T03:39:08.539Z,100.00
2022-09-16T03:41:37.527Z,100.00
2022-09-16T03:44:06.566Z,100.00
2022-09-16T03:46:35.516Z,100.00
2022-09-16T03:49:04.689Z,100.00
2022-09-16T03:51:33.442Z,100.00
2022-09-16T03:54:03.786Z,100.00
2022-09-16T03:56:32.599Z,100.00
2022-09-16T03:59:01.303Z,100.00
2022-09-16T04:01:30.050Z,100.00
2022-09-16T04:03:58.744Z,100.00
2022-09-16T04:06:27.486Z,100.00
2022-09-16T04:08:58.785Z,100.00
2022-09-16T04:11:31.877Z,100.00
2022-09-16T04:14:00.722Z,100.00
2022-09-16T04:16:29.564Z,100.00
2022-09-16T04:18:58.909Z,100.00
2022-09-16T04:21:28.183Z,100.00
2022-09-16T04:23:57.143Z,100.00
2022-09-16T04:26:26.057Z,100.00
2022-09-16T04:28:56.547Z,100.00
2022-09-16T04:31:25.735Z,100.00
2022-09-16T04:33:54.548Z,100.00
2022-09-16T04:36:23.600Z,100.00
2022-09-16T04:38:52.628Z,100.00
2022-09-16T04:41:23.440Z,100.00
2022-09-16T04:43:54.081Z,100.00
2022-09-16T04:46:24.899Z,100.00
2022-09-16T04:48:54.915Z,100.00
2022-09-16T04:51:25.679Z,100.00
2022-09-16T04:53:55.649Z,100.00
2022-09-16T04:56:26.649Z,100.00
2022-09-16T04:58:57.583Z,100.00
2022-09-16T05:01:29.605Z,100.00
2022-09-16T05:04:01.159Z,100.00
2022-09-16T05:06:32.255Z,100.00
2022-09-16T05:09:01.727Z,100.00
2022-09-16T05:11:32.433Z,100.00
2022-09-16T05:14:01.713Z,100.00
2022-09-16T05:16:33.043Z,100.00
2022-09-16T05:19:05.961Z,100.00
2022-09-16T05:21:37.398Z,100.00
2022-09-16T05:24:08.835Z,100.00
2022-09-16T05:26:40.293Z,100.00
2022-09-16T05:29:12.826Z,100.00
2022-09-16T05:31:44.712Z,100.00
2022-09-16T05:34:16.016Z,100.00
2022-09-16T05:36:47.674Z,100.00
2022-09-16T05:39:25.955Z,100.00
2022-09-16T05:41:57.039Z,100.00
2022-09-16T05:44:26.108Z,100.00
2022-09-16T05:46:56.615Z,100.00
2022-09-16T05:49:25.837Z,100.00
2022-09-16T05:51:55.017Z,97.16
2022-09-16T05:54:25.548Z,87.46
2022-09-16T05:56:54.463Z,85.19
2022-09-16T05:59:24.279Z,85.22
2022-09-16T06:01:53.453Z,81.89
2022-09-16T06:04:23.730Z,80.58
2022-09-16T06:06:52.548Z,77.67
2022-09-16T06:09:23.457Z,79.48
2022-09-16T06:12:00.804Z,74.97
2022-09-16T06:14:30.606Z,73.40
2022-09-16T06:16:59.499Z,74.24
2022-09-16T06:19:29.830Z,77.75
2022-09-16T06:21:58.748Z,73.34
2022-09-16T06:24:27.585Z,68.28
2022-09-16T06:26:56.373Z,68.38
2022-09-16T06:29:25.371Z,59.96
2022-09-16T06:31:54.117Z,60.93
2022-09-16T06:34:22.808Z,59.50
2022-09-16T06:36:52.955Z,61.16
2022-09-16T06:39:23.199Z,55.42
2022-09-16T06:41:52.118Z,56.64
2022-09-16T06:44:25.152Z,61.87
2022-09-16T06:46:53.855Z,58.64
2022-09-16T06:49:22.795Z,58.12
2022-09-16T06:51:52.936Z,58.41
2022-09-16T06:54:21.674Z,54.07
2022-09-16T06:56:50.456Z,52.84
2022-09-16T06:59:19.196Z,52.39
2022-09-16T07:01:48.031Z,58.29
2022-09-16T07:04:16.854Z,59.96
2022-09-16T07:09:36.650Z,52.58
2022-09-16T07:12:06.173Z,53.54
2022-09-16T07:14:35.341Z,50.93
2022-09-16T07:17:04.215Z,52.83
2022-09-16T07:19:33.191Z,56.51
2022-09-16T07:22:02.061Z,57.14
2022-09-16T07:24:31.221Z,57.41
2022-09-16T07:27:01.410Z,57.48
2022-09-16T07:29:30.098Z,51.01
2022-09-16T07:31:58.852Z,52.81
2022-09-16T07:34:27.665Z,53.03
2022-09-16T07:36:57.087Z,58.89
2022-09-16T07:39:26.585Z,60.37
2022-09-16T07:41:55.328Z,53.35
2022-09-16T07:44:25.931Z,54.00
2022-09-16T07:46:54.925Z,50.05
2022-09-16T07:49:23.586Z,48.53
2022-09-16T07:51:52.352Z,47.34
2022-09-16T07:54:21.650Z,49.37
2022-09-16T07:56:50.523Z,46.88
2022-09-16T07:59:20.844Z,48.88
2022-09-16T08:01:51.706Z,51.96
2022-09-16T08:04:21.355Z,55.57
2022-09-16T08:06:50.538Z,54.86
2022-09-16T08:09:38.174Z,56.15
2022-09-16T08:12:11.042Z,55.96
2022-09-16T08:14:40.089Z,56.34
2022-09-16T08:17:10.387Z,57.45
2022-09-16T08:19:40.484Z,58.48
2022-09-16T08:22:09.312Z,66.55
2022-09-16T08:24:37.967Z,65.90
2022-09-16T08:27:06.691Z,59.50
2022-09-16T08:29:35.795Z,67.63
2022-09-16T08:32:04.773Z,64.27
2022-09-16T08:34:35.024Z,68.36
2022-09-16T08:37:03.864Z,70.56
2022-09-16T08:39:32.657Z,72.48
2022-09-16T08:42:37.759Z,68.49
2022-09-16T08:45:20.827Z,69.61
2022-09-16T08:48:03.314Z,69.83
2022-09-16T08:50:36.953Z,68.58
2022-09-16T08:53:12.987Z,74.88
2022-09-16T08:55:46.876Z,71.94
2022-09-16T08:58:18.945Z,69.67
2022-09-16T09:00:51.399Z,69.59
2022-09-16T09:03:32.344Z,69.13
2022-09-16T09:06:05.951Z,71.27
2022-09-16T09:08:44.836Z,69.69
2022-09-16T09:11:20.080Z,70.15
2022-09-16T09:14:02.745Z,68.47
2022-09-16T09:16:39.837Z,66.81
2022-09-16T09:19:24.946Z,67.68
2022-09-16T09:22:06.299Z,66.14
2022-09-16T09:24:56.675Z,75.00
2022-09-16T09:27:32.604Z,70.07
2022-09-16T09:30:11.922Z,72.31
2022-09-16T09:32:58.868Z,75.18
2022-09-16T09:35:40.954Z,75.48
2022-09-16T09:38:36.229Z,74.45
2022-09-16T09:41:11.039Z,79.60
2022-09-16T09:43:45.485Z,78.32
2022-09-16T09:46:19.820Z,79.98
2022-09-16T09:48:53.688Z,84.90
2022-09-16T09:51:27.827Z,92.58
2022-09-16T09:54:03.367Z,100.00
2022-09-16T09:56:35.018Z,100.00
2022-09-16T09:59:27.151Z,100.00
2022-09-16T10:01:56.766Z,100.00
2022-09-16T10:04:26.084Z,100.00
2022-09-16T10:06:57.363Z,100.00
2022-09-16T10:09:27.731Z,100.00
2022-09-16T10:11:57.558Z,100.00
2022-09-16T10:14:31.123Z,100.00
2022-09-16T10:17:03.452Z,100.00
2022-09-16T10:19:36.389Z,100.00
2022-09-16T10:22:11.773Z,100.00
2022-09-16T10:24:43.373Z,100.00
2022-09-16T10:27:24.255Z,100.00
2022-09-16T10:30:09.133Z,100.00
2022-09-16T10:32:48.258Z,100.00
2022-09-16T10:35:21.834Z,100.00
2022-09-16T10:37:56.089Z,100.00
2022-09-16T10:40:27.227Z,100.00
2022-09-16T10:43:01.357Z,100.00
2022-09-16T10:45:32.834Z,100.00
2022-09-16T10:48:07.190Z,100.00
2022-09-16T10:50:36.325Z,100.00
2022-09-16T10:53:05.358Z,100.00
2022-09-16T10:55:38.115Z,100.00
2022-09-16T10:58:16.038Z,100.00
2022-09-16T11:00:51.894Z,100.00
2022-09-16T11:03:46.709Z,100.00
2022-09-16T11:06:32.608Z,100.00
2022-09-16T11:09:13.853Z,100.00
2022-09-16T11:12:29.725Z,100.00
2022-09-16T11:15:08.752Z,100.00
2022-09-16T11:17:51.521Z,100.00
2022-09-16T11:20:44.370Z,100.00
2022-09-16T11:23:27.802Z,100.00
2022-09-16T11:26:02.263Z,100.00
2022-09-16T11:28:51.828Z,100.00
2022-09-16T11:31:33.367Z,100.00
2022-09-16T11:34:12.000Z,100.00
2022-09-16T11:36:53.745Z,100.00
2022-09-16T11:39:35.101Z,100.00
2022-09-16T11:42:09.964Z,100.00
2022-09-16T11:44:47.821Z,100.00
2022-09-16T11:47:39.897Z,100.00
2022-09-16T11:50:24.044Z,100.00
2022-09-16T11:53:27.558Z,100.00
2022-09-16T11:56:01.158Z,100.00
2022-09-16T11:58:38.802Z,100.00
2022-09-16T12:03:51.229Z,100.00
2022-09-16T12:06:24.145Z,100.00
2022-09-16T12:08:55.786Z,100.00
2022-09-16T12:11:33.200Z,100.00
2022-09-16T12:14:12.723Z,100.00
2022-09-16T12:16:46.996Z,100.00
2022-09-16T12:19:22.366Z,100.00
2022-09-16T12:21:58.022Z,100.00
2022-09-16T12:24:37.885Z,100.00
2022-09-16T12:27:12.109Z,100.00
2022-09-16T12:29:48.348Z,100.00
2022-09-16T12:32:25.483Z,100.00
2022-09-16T12:34:59.708Z,100.00
2022-09-16T12:37:35.468Z,100.00
2022-09-16T12:40:06.007Z,100.00
2022-09-16T12:43:07.095Z,100.00
2022-09-16T12:46:06.673Z,100.00
2022-09-16T12:49:14.207Z,100.00
2022-09-16T12:52:17.790Z,100.00
2022-09-16T12:55:11.450Z,100.00
2022-09-16T12:57:54.212Z,100.00
2022-09-16T13:00:26.145Z,100.00
2022-09-16T13:03:00.447Z,100.00
2022-09-16T13:05:33.446Z,100.00
2022-09-16T13:08:06.395Z,100.00
2022-09-16T13:10:55.088Z,100.00
2022-09-16T13:13:34.470Z,100.00
2022-09-16T13:16:05.689Z,100.00
2022-09-16T13:18:43.889Z,100.00
2022-09-16T13:21:25.187Z,100.00
2022-09-16T13:24:03.168Z,100.00
2022-09-16T13:26:41.505Z,100.00
2022-09-16T13:29:39.781Z,100.00
2022-09-16T13:32:27.543Z,100.00
2022-09-16T13:35:07.137Z,100.00
2022-09-16T13:37:36.013Z,100.00
2022-09-16T13:40:19.308Z,100.00
2022-09-16T13:42:47.878Z,100.00
2022-09-16T13:45:34.421Z,100.00
2022-09-16T13:48:11.162Z,100.00
2022-09-16T13:50:44.071Z,100.00
2022-09-16T13:53:22.695Z,100.00
2022-09-16T13:55:54.571Z,100.00
2022-09-16T13:58:30.044Z,100.00
2022-09-16T14:01:07.038Z,100.00
2022-09-16T14:03:47.871Z,100.00
2022-09-16T14:06:37.004Z,100.00
2022-09-16T14:09:29.752Z,100.00
2022-09-16T14:12:09.384Z,100.00
2022-09-16T14:14:53.916Z,100.00
2022-09-16T14:17:27.744Z,100.00
2022-09-16T14:20:00.301Z,100.00
2022-09-16T14:22:30.335Z,100.00
2022-09-16T14:25:06.673Z,100.00
2022-09-16T14:27:44.177Z,100.00
2022-09-16T14:30:18.316Z,100.00
2022-09-16T14:32:48.960Z,100.00
2022-09-16T14:35:21.551Z,100.00
2022-09-16T14:37:54.825Z,100.00
2022-09-16T14:40:26.145Z,100.00
2022-09-16T14:43:00.973Z,100.00
2022-09-16T14:45:31.729Z,100.00
2022-09-16T14:48:04.324Z,100.00
2022-09-16T14:50:35.063Z,100.00
2022-09-16T14:53:05.446Z,100.00
2022-09-16T14:55:40.382Z,100.00
2022-09-16T14:58:13.648Z,100.00
2022-09-16T15:00:47.874Z,100.00
2022-09-16T15:03:22.957Z,100.00
2022-09-16T15:05:54.422Z,100.00
2022-09-16T15:08:27.519Z,100.00
2022-09-16T15:10:58.028Z,100.00
2022-09-16T15:13:31.196Z,100.00
2022-09-16T15:16:02.055Z,100.00
2022-09-16T15:18:33.658Z,100.00
2022-09-16T15:21:07.518Z,100.00
2022-09-16T15:23:39.950Z,100.00
2022-09-16T15:26:15.946Z,100.00
2022-09-16T15:28:58.550Z,100.00
2022-09-16T15:31:33.511Z,100.00
2022-09-16T15:34:05.852Z,100.00
2022-09-16T15:36:37.344Z,100.00
2022-09-16T15:39:07.706Z,100.00
2022-09-16T15:41:36.910Z,100.00
2022-09-16T15:44:10.892Z,100.00
2022-09-16T15:46:47.282Z,100.00
2022-09-16T15:49:20.108Z,100.00
2022-09-16T15:51:51.543Z,100.00
2022-09-16T15:54:25.364Z,100.00
2022-09-16T15:57:02.391Z,100.00
2022-09-16T15:59:38.182Z,100.00
2022-09-16T16:02:20.704Z,100.00
2022-09-16T16:04:50.030Z,100.00
2022-09-16T16:07:41.434Z,100.00
2022-09-16T16:10:17.064Z,100.00
2022-09-16T16:12:48.105Z,100.00
2022-09-16T16:15:21.365Z,100.00
2022-09-16T16:17:51.198Z,100.00
2022-09-16T16:20:20.650Z,100.00
2022-09-16T16:22:49.863Z,100.00
2022-09-16T16:25:19.102Z,100.00
2022-09-16T16:27:47.907Z,100.00
2022-09-16T16:30:18.265Z,100.00
2022-09-16T16:32:47.205Z,100.00
2022-09-16T16:35:16.317Z,100.00
2022-09-16T16:37:46.903Z,100.00
2022-09-16T16:40:17.042Z,100.00
2022-09-16T16:42:45.835Z,100.00
2022-09-16T16:45:15.328Z,100.00
2022-09-16T16:47:46.449Z,100.00
2022-09-16T16:50:15.512Z,100.00
2022-09-16T16:52:44.411Z,100.00
2022-09-16T16:55:13.602Z,100.00
2022-09-16T16:57:42.608Z,100.00
2022-09-16T17:00:13.963Z,100.00
2022-09-16T17:02:44.879Z,100.00
2022-09-16T17:05:14.075Z,100.00
2022-09-16T17:07:43.141Z,100.00
2022-09-16T17:10:13.130Z,100.00
2022-09-16T17:12:42.206Z,100.00
2022-09-16T17:15:11.755Z,100.00
2022-09-16T17:17:40.705Z,100.00
2022-09-16T17:20:11.420Z,100.00
2022-09-16T17:22:41.269Z,100.00
2022-09-16T17:25:10.668Z,100.00
2022-09-16T17:27:39.396Z,100.00
2022-09-16T17:30:09.449Z,100.00
2022-09-16T17:32:38.354Z,100.00
2022-09-16T17:35:08.357Z,100.00
2022-09-16T17:37:38.712Z,100.00
2022-09-16T17:40:08.785Z,100.00
2022-09-16T17:42:39.132Z,100.00
2022-09-16T17:45:09.032Z,100.00
2022-09-16T17:47:38.107Z,100.00
2022-09-16T17:50:08.167Z,100.00
2022-09-16T17:52:38.619Z,100.00
2022-09-16T17:55:08.332Z,100.00
2022-09-16T17:57:37.303Z,100.00
2022-09-16T18:00:07.451Z,100.00
2022-09-16T18:02:41.269Z,100.00
2022-09-16T18:05:11.036Z,100.00
2022-09-16T18:07:41.791Z,100.00
2022-09-16T18:10:11.374Z,100.00
2022-09-16T18:12:40.199Z,100.00
2022-09-16T18:15:10.116Z,100.00
2022-09-16T18:17:39.158Z,100.00
2022-09-16T18:20:09.453Z,100.00
2022-09-16T18:22:38.339Z,100.00
2022-09-16T18:25:09.542Z,100.00
2022-09-16T18:27:43.883Z,100.00
2022-09-16T18:30:13.997Z,100.00
2022-09-16T18:32:42.823Z,100.00
2022-09-16T18:35:13.153Z,100.00
2022-09-16T18:37:41.972Z,100.00
2022-09-16T18:40:12.938Z,100.00
2022-09-16T18:42:41.952Z,100.00
2022-09-16T18:45:11.613Z,100.00
2022-09-16T18:47:40.648Z,100.00
2022-09-16T18:50:10.604Z,100.00
2022-09-16T18:52:39.640Z,100.00
2022-09-16T18:55:09.147Z,100.00
2022-09-16T18:57:40.546Z,100.00
2022-09-16T19:00:10.529Z,100.00
2022-09-16T19:02:39.318Z,100.00
2022-09-16T19:05:08.630Z,100.00
2022-09-16T19:07:37.471Z,100.00
2022-09-16T19:10:06.854Z,100.00
2022-09-16T19:12:39.068Z,100.00
2022-09-16T19:15:11.379Z,100.00
2022-09-16T19:17:40.136Z,100.00
2022-09-16T19:20:09.506Z,100.00
2022-09-16T19:22:38.385Z,100.00
2022-09-16T19:25:07.933Z,100.00
2022-09-16T19:27:37.394Z,100.00
2022-09-16T19:30:07.000Z,100.00
2022-09-16T19:32:37.200Z,100.00
2022-09-16T19:35:06.940Z,100.00
2022-09-16T19:37:35.937Z,100.00
2022-09-16T19:40:04.867Z,100.00
2022-09-16T19:42:33.632Z,100.00
2022-09-16T19:45:02.774Z,100.00
2022-09-16T19:47:32.513Z,100.00
2022-09-16T19:50:02.909Z,100.00
2022-09-16T19:52:32.266Z,100.00
2022-09-16T19:55:00.948Z,100.00
2022-09-16T19:57:29.705Z,100.00
2022-09-16T19:59:58.631Z,100.00
2022-09-16T20:02:27.936Z,100.00
2022-09-16T20:04:56.817Z,100.00
2022-09-16T20:07:27.179Z,100.00
2022-09-16T20:09:56.013Z,100.00
2022-09-16T20:12:24.747Z,100.00
2022-09-16T20:14:53.448Z,100.00
2022-09-16T20:17:22.096Z,100.00
2022-09-16T20:19:50.818Z,100.00
2022-09-16T20:22:19.648Z,100.00
2022-09-16T20:25:01.141Z,100.00
2022-09-16T20:27:39.352Z,100.00
2022-09-16T20:30:08.948Z,100.00
2022-09-16T20:32:37.777Z,100.00
2022-09-16T20:35:07.510Z,100.00
2022-09-16T20:37:36.125Z,100.00
2022-09-16T20:40:07.347Z,100.00
2022-09-16T20:42:36.067Z,100.00
2022-09-16T20:45:04.907Z,100.00
2022-09-16T20:47:33.524Z,100.00
2022-09-16T20:50:02.706Z,100.00
2022-09-16T20:52:33.403Z,100.00
2022-09-16T20:55:06.461Z,100.00
2022-09-16T20:57:36.501Z,100.00
2022-09-16T21:00:06.090Z,100.00
2022-09-16T21:02:35.361Z,100.00
2022-09-16T21:05:05.064Z,100.00
2022-09-16T21:07:33.840Z,100.00
2022-09-16T21:10:03.181Z,100.00
2022-09-16T21:12:32.419Z,100.00
2022-09-16T21:15:02.694Z,100.00
2022-09-16T21:17:32.581Z,100.00
2022-09-16T21:20:01.297Z,100.00
2022-09-16T21:22:30.118Z,100.00
2022-09-16T21:24:58.963Z,100.00
2022-09-16T21:27:27.645Z,100.00
2022-09-16T21:29:57.179Z,100.00
2022-09-16T21:32:27.284Z,100.00
2022-09-16T21:34:56.068Z,100.00
2022-09-16T21:37:24.666Z,100.00
2022-09-16T21:39:53.498Z,100.00
2022-09-16T21:42:22.174Z,100.00
2022-09-16T21:44:50.865Z,100.00
2022-09-16T21:47:19.618Z,100.00
2022-09-16T21:49:50.050Z,100.00
2022-09-16T21:52:18.828Z,100.00
2022-09-16T21:54:47.451Z,100.00
2022-09-16T21:57:16.224Z,100.00
2022-09-16T21:59:44.935Z,100.00
2022-09-16T22:02:13.693Z,100.00
2022-09-16T22:04:42.485Z,100.00
2022-09-16T22:07:12.735Z,100.00
2022-09-16T22:09:41.620Z,100.00
2022-09-16T22:12:10.486Z,100.00
2022-09-16T22:14:39.382Z,100.00
2022-09-16T22:17:08.204Z,100.00
2022-09-16T22:19:37.199Z,100.00
2022-09-16T22:22:06.089Z,100.00
2022-09-16T22:24:36.540Z,100.00
2022-09-16T22:27:05.888Z,100.00
2022-09-16T22:29:34.724Z,100.00
2022-09-16T22:32:03.826Z,100.00
2022-09-16T22:34:32.890Z,100.00
2022-09-16T22:37:01.716Z,100.00
2022-09-16T22:39:30.594Z,100.00
2022-09-16T22:42:00.710Z,100.00
2022-09-16T22:44:29.334Z,100.00
2022-09-16T22:46:58.131Z,100.00
2022-09-16T22:49:26.933Z,100.00
2022-09-16T22:51:55.609Z,100.00
2022-09-16T22:54:24.331Z,100.00
2022-09-16T22:56:56.251Z,100.00
2022-09-16T22:59:26.384Z,100.00
2022-09-16T23:01:55.254Z,100.00
2022-09-16T23:04:27.401Z,100.00
2022-09-16T23:06:56.137Z,100.00
2022-09-16T23:09:24.866Z,100.00
2022-09-16T23:11:53.519Z,100.00
2022-09-16T23:14:26.664Z,100.00
2022-09-16T23:16:56.753Z,100.00
2022-09-16T23:19:25.443Z,100.00
2022-09-16T23:21:54.151Z,100.00
2022-09-16T23:24:23.615Z,100.00
2022-09-16T23:26:52.500Z,100.00
2022-09-16T23:29:21.221Z,100.00
2022-09-16T23:31:50.002Z,100.00
2022-09-16T23:34:21.417Z,100.00
2022-09-16T23:36:50.656Z,100.00
2022-09-16T23:39:19.537Z,100.00
2022-09-16T23:41:49.945Z,100.00
2022-09-16T23:44:19.096Z,100.00
2022-09-16T23:46:47.887Z,100.00
2022-09-16T23:49:20.390Z,100.00
2022-09-16T23:51:50.667Z,100.00
2022-09-16T23:54:19.341Z,100.00
2022-09-16T23:56:48.270Z,100.00
2022-09-16T23:59:16.986Z,100.00
